Time;durP1;ratioP1;P1;durP2;ratioP2;P2;SDS_P1;SDS_P2;PMS_P1;PMS_P2;Temp;Humidity;BMP_temperature;BMP_pressure;BME280_temperature;BME280_humidity;BME280_pressure;Samples;Min_cycle;Max_cycle;Signal;HPM_P1;HPM_P2
2022/06/27 00:00:09;;;;;;;3.33;3.13;;;22.00;99.90;;;22.79;70.86;97596.72;5198100;28;20214;-60
2022/06/27 00:02:43;;;;;;;3.78;3.50;;;21.90;99.90;;;22.89;71.09;97593.28;5201590;28;20581;-59
2022/06/27 00:05:16;;;;;;;3.83;3.53;;;21.90;99.90;;;22.78;72.05;97597.59;5199388;28;20198;-60
2022/06/27 00:07:49;;;;;;;4.40;4.00;;;21.80;99.90;;;22.62;72.59;97593.16;5197728;28;20248;-60
2022/06/27 00:10:23;;;;;;;4.63;4.15;;;21.70;99.90;;;22.43;73.97;97598.28;5194849;28;20701;-60
2022/06/27 00:12:57;;;;;;;4.85;4.55;;;21.50;99.90;;;22.27;74.67;97609.47;5195949;28;20194;-60
2022/06/27 00:15:31;;;;;;;4.45;4.15;;;21.40;99.90;;;22.14;75.40;97615.41;5198832;28;20287;-60
2022/06/27 00:18:04;;;;;;;4.80;4.40;;;21.30;99.90;;;22.13;75.65;97619.75;5197467;28;20320;-59
2022/06/27 00:20:37;;;;;;;4.90;4.50;;;21.20;99.90;;;21.97;76.34;97647.38;5198211;28;20719;-59
2022/06/27 00:23:11;;;;;;;4.90;4.50;;;21.20;99.90;;;22.00;76.23;97644.78;5196712;28;20306;-60
2022/06/27 00:25:45;;;;;;;4.43;4.20;;;21.20;99.90;;;21.99;76.23;97676.88;5195594;28;20633;-61
2022/06/27 00:28:18;;;;;;;4.50;3.92;;;21.10;99.90;;;21.88;76.11;97695.88;5197375;28;20213;-60
2022/06/27 00:30:51;;;;;;;3.63;3.38;;;21.10;99.90;;;21.83;76.39;97703.63;5194448;28;20734;-59
2022/06/27 00:33:24;;;;;;;3.90;3.60;;;21.00;99.90;;;21.64;76.67;97712.13;5199897;28;20222;-60
2022/06/27 00:35:58;;;;;;;3.17;2.88;;;20.80;99.90;;;21.69;76.32;97713.00;5197615;28;20236;-60
2022/06/27 00:38:31;;;;;;;2.90;2.70;;;20.80;99.90;;;21.45;76.61;97711.91;5202826;28;20246;-60
2022/06/27 00:41:05;;;;;;;3.88;2.75;;;20.70;99.90;;;21.46;77.57;97718.88;5202782;28;20209;-60
2022/06/27 00:43:38;;;;;;;2.92;2.72;;;20.70;99.90;;;21.38;79.03;97736.09;5203807;28;20258;-59
2022/06/27 00:46:12;;;;;;;3.00;2.70;;;20.60;99.90;;;21.29;81.57;97772.31;5202419;28;20225;-60
2022/06/27 00:48:45;;;;;;;2.97;2.50;;;20.60;99.90;;;21.24;83.34;97818.22;5200452;28;20223;-60
2022/06/27 00:51:19;;;;;;;2.58;2.40;;;20.60;99.90;;;21.21;85.54;97851.97;5201027;28;20202;-60
2022/06/27 00:53:53;;;;;;;3.05;2.75;;;20.50;99.90;;;21.06;86.62;97875.97;5195511;28;20194;-61
2022/06/27 00:56:27;;;;;;;3.05;2.72;;;20.40;99.90;;;20.95;87.84;97895.75;5202678;28;20229;-61
2022/06/27 00:59:00;;;;;;;3.30;2.75;;;20.30;99.90;;;20.83;89.56;97911.97;5192615;28;20724;-62
2022/06/27 01:01:33;;;;;;;2.78;2.58;;;20.20;99.90;;;20.74;91.58;97920.50;5197576;28;20234;-63
2022/06/27 01:04:07;;;;;;;5.15;3.00;;;20.10;99.90;;;20.52;93.82;97939.09;5204655;28;20472;-62
2022/06/27 01:06:40;;;;;;;4.93;2.95;;;20.00;99.90;;;20.31;95.37;97947.34;5201136;28;20924;-63
2022/06/27 01:09:13;;;;;;;3.45;2.30;;;19.70;99.90;;;20.08;94.91;97965.91;5201250;28;20229;-63
2022/06/27 01:11:48;;;;;;;4.25;2.38;;;19.50;99.90;;;19.77;98.12;97993.81;5198957;28;20253;-64
2022/06/27 01:14:21;;;;;;;2.63;2.10;;;19.30;99.90;;;19.54;99.48;97997.50;5201986;28;20293;-64
2022/06/27 01:16:55;;;;;;;3.75;2.53;;;19.00;99.90;;;19.31;100.00;97999.53;5201034;28;20210;-65
2022/06/27 01:19:28;;;;;;;7.38;2.83;;;18.70;99.90;;;19.27;100.00;98011.56;5202506;28;20217;-64
2022/06/27 01:22:07;;;;;;;5.35;2.70;;;18.70;99.90;;;19.13;100.00;97999.97;5201395;28;20230;-64
2022/06/27 01:24:40;;;;;;;2.90;2.35;;;18.60;99.90;;;19.04;100.00;98000.63;5201959;28;20260;-65
2022/06/27 01:27:13;;;;;;;4.65;2.58;;;18.50;99.90;;;19.00;100.00;98013.44;5195979;28;20234;-65
2022/06/27 01:29:47;;;;;;;3.30;2.33;;;18.50;99.90;;;19.00;100.00;97987.53;5202670;28;20663;-65
2022/06/27 01:32:20;;;;;;;2.47;1.80;;;18.40;99.90;;;18.69;100.00;97919.38;5198274;28;20201;-66
2022/06/27 01:34:53;;;;;;;5.35;1.90;;;18.10;99.90;;;18.39;100.00;97862.50;5202078;28;20236;-64
2022/06/27 01:37:28;;;;;;;5.13;2.33;;;17.90;99.90;;;18.26;100.00;97783.69;5198734;28;21806;-66
2022/06/27 01:40:01;;;;;;;2.85;1.95;;;17.80;99.90;;;18.22;100.00;97694.72;5199409;28;20218;-65
2022/06/27 01:42:35;;;;;;;2.83;2.33;;;17.60;99.90;;;18.04;100.00;97631.34;5198745;28;20713;-64
2022/06/27 01:45:11;;;;;;;2.40;1.88;;;17.50;99.90;;;17.90;100.00;97536.19;5204229;28;20201;-64
2022/06/27 01:47:44;;;;;;;2.00;1.80;;;17.40;99.90;;;17.73;100.00;97499.56;5201989;28;20633;-64
2022/06/27 01:50:21;;;;;;;2.60;1.92;;;17.30;99.90;;;17.80;100.00;97601.47;5204114;28;20669;-65
2022/06/27 01:52:57;;;;;;;1.70;1.60;;;17.30;99.90;;;17.90;100.00;97668.06;5197868;28;20198;-64
2022/06/27 01:55:31;;;;;;;4.30;2.67;;;17.50;99.90;;;17.99;100.00;97689.00;5202416;28;20233;-64
2022/06/27 01:58:04;;;;;;;2.25;1.90;;;17.70;99.90;;;17.98;100.00;97705.34;5202626;28;20722;-65
2022/06/27 02:00:40;;;;;;;2.15;1.92;;;17.60;99.90;;;18.02;100.00;97709.75;5197606;28;20704;-67
2022/06/27 02:03:14;;;;;;;2.40;2.15;;;17.60;99.90;;;18.02;100.00;97711.47;5197699;28;20737;-64
2022/06/27 02:05:47;;;;;;;2.00;1.90;;;17.60;99.90;;;18.00;100.00;97703.69;5194973;28;20202;-64
2022/06/27 02:08:23;;;;;;;1.98;1.88;;;17.50;99.90;;;17.91;100.00;97708.63;5201918;28;20226;-64
2022/06/27 02:10:57;;;;;;;3.47;1.80;;;17.50;99.90;;;17.84;100.00;97683.44;5200555;28;20197;-64
2022/06/27 02:13:31;;;;;;;2.33;2.13;;;17.40;99.90;;;17.88;100.00;97687.84;5203789;28;20248;-64
2022/06/27 02:16:09;;;;;;;3.03;1.98;;;17.40;99.90;;;17.91;100.00;97672.44;5197395;28;20202;-64
2022/06/27 02:18:43;;;;;;;2.40;2.20;;;17.40;99.90;;;17.95;100.00;97663.91;5202082;28;20228;-64
2022/06/27 02:21:20;;;;;;;3.20;2.58;;;17.50;99.90;;;18.05;100.00;97664.13;5199583;28;20220;-64
2022/06/27 02:23:55;;;;;;;3.10;2.40;;;17.60;99.90;;;18.12;100.00;97660.84;5202635;28;20655;-64
2022/06/27 02:26:31;;;;;;;2.30;2.20;;;17.70;99.90;;;18.18;100.00;97672.22;5200526;28;20193;-66
2022/06/27 02:29:05;;;;;;;2.45;2.25;;;17.70;99.90;;;18.22;100.00;97666.25;5198605;28;20640;-64
2022/06/27 02:31:46;;;;;;;3.90;2.15;;;17.80;99.90;;;18.29;100.00;97663.84;5198954;28;20659;-64
2022/06/27 02:34:20;;;;;;;2.33;2.13;;;17.80;99.90;;;18.35;100.00;97649.34;5200958;28;20194;-64
2022/06/27 02:36:56;;;;;;;2.45;2.25;;;17.90;99.90;;;18.40;100.00;97652.03;5198427;28;20252;-64
2022/06/27 02:39:33;;;;;;;2.03;1.75;;;18.00;99.90;;;18.43;100.00;97642.63;5204809;28;20268;-64
2022/06/27 02:42:10;;;;;;;2.35;2.15;;;17.90;99.90;;;18.42;100.00;97646.03;5200057;28;20241;-64
2022/06/27 02:44:44;;;;;;;3.25;2.28;;;17.90;99.90;;;18.42;100.00;97655.50;5202028;28;21458;-64
2022/06/27 02:47:21;;;;;;;4.72;2.30;;;17.90;99.90;;;18.41;100.00;97654.66;5204932;28;20197;-64
2022/06/27 02:49:54;;;;;;;3.10;2.90;;;17.90;99.90;;;18.39;100.00;97651.13;5196695;28;20276;-64
2022/06/27 02:52:35;;;;;;;2.95;2.22;;;17.90;99.90;;;18.32;100.00;97645.81;5200609;28;20237;-64
2022/06/27 02:55:15;;;;;;;2.67;2.47;;;17.80;99.90;;;18.24;100.00;97638.72;5200943;28;20660;-64
2022/06/27 02:57:57;;;;;;;3.55;2.33;;;17.60;99.90;;;18.13;100.00;97653.13;5201031;28;20248;-64
2022/06/27 03:00:32;;;;;;;2.40;2.30;;;17.60;99.90;;;18.18;100.00;97655.81;5198585;28;20202;-64
2022/06/27 03:03:07;;;;;;;2.13;1.90;;;17.60;99.90;;;18.12;100.00;97651.38;5195830;28;20292;-63
2022/06/27 03:05:56;;;;;;;2.60;2.35;;;17.50;99.90;;;18.16;100.00;97655.78;5201701;28;20251;-64
2022/06/27 03:08:41;;;;;;;3.10;2.40;;;17.50;99.90;;;18.19;100.00;97660.16;5199546;28;20229;-64
2022/06/27 03:11:19;;;;;;;2.72;2.42;;;17.60;99.90;;;18.26;100.00;97651.72;5198804;28;20236;-64
2022/06/27 03:13:54;;;;;;;2.17;2.03;;;17.70;99.90;;;18.17;100.00;97643.72;5193720;28;20260;-63
2022/06/27 03:16:28;;;;;;;3.00;2.00;;;17.50;99.90;;;18.18;100.00;97653.25;5198693;28;20244;-63
2022/06/27 03:19:01;;;;;;;3.72;2.38;;;17.50;99.90;;;17.97;100.00;97646.72;5196101;28;20225;-64
2022/06/27 03:21:34;;;;;;;3.35;1.85;;;17.30;99.90;;;17.90;100.00;97644.81;5200645;28;20276;-63
2022/06/27 03:24:08;;;;;;;2.63;2.42;;;17.20;99.90;;;17.99;100.00;97639.84;5188963;28;20222;-63
2022/06/27 03:26:43;;;;;;;3.80;2.10;;;17.40;99.90;;;18.02;100.00;97644.22;5193796;28;20206;-64
2022/06/27 03:29:16;;;;;;;3.72;2.28;;;17.40;99.90;;;17.96;100.00;97632.00;5198523;28;20240;-64
2022/06/27 03:31:49;;;;;;;2.75;2.55;;;17.30;99.90;;;17.97;100.00;97646.72;5190092;28;20194;-63
2022/06/27 03:34:23;;;;;;;2.90;2.10;;;17.30;99.90;;;18.04;100.00;97642.56;5194471;28;20424;-63
2022/06/27 03:36:56;;;;;;;3.65;2.17;;;17.40;99.90;;;17.99;100.00;97647.59;5196175;28;20289;-63
2022/06/27 03:39:29;;;;;;;3.42;2.35;;;17.30;99.90;;;18.01;100.00;97656.28;5199921;28;20214;-64
2022/06/27 03:42:05;;;;;;;3.05;2.30;;;17.40;99.90;;;17.99;100.00;97663.13;5199370;28;20210;-64
2022/06/27 03:44:38;;;;;;;2.40;2.30;;;17.30;99.90;;;18.03;100.00;97656.34;5196317;28;20225;-64
2022/06/27 03:47:11;;;;;;;2.72;2.25;;;17.40;99.90;;;18.11;100.00;97659.09;5199365;28;20264;-63
2022/06/27 03:50:01;;;;;;;2.92;2.47;;;17.50;99.90;;;18.15;100.00;97659.22;5200918;28;20778;-64
2022/06/27 03:52:34;;;;;;;2.53;2.22;;;17.50;99.90;;;18.17;100.00;97660.13;5200375;28;20225;-64
2022/06/27 03:55:08;;;;;;;3.40;2.55;;;17.50;99.90;;;18.20;100.00;97664.50;5195906;28;20230;-64
2022/06/27 03:57:50;;;;;;;2.90;2.70;;;17.50;99.90;;;18.22;100.00;97658.50;5200534;28;20247;-63
2022/06/27 04:00:26;;;;;;;2.97;2.30;;;17.50;99.90;;;18.23;100.00;97656.81;5198308;28;20197;-64
2022/06/27 04:03:00;;;;;;;3.30;2.65;;;17.50;99.90;;;18.23;100.00;97656.81;5199727;28;20256;-64
2022/06/27 04:05:33;;;;;;;2.80;2.60;;;17.60;99.90;;;18.25;100.00;97662.88;5198622;28;20253;-64
2022/06/27 04:08:07;;;;;;;3.70;2.95;;;17.60;99.90;;;18.28;100.00;97668.13;5197849;28;20221;-64
2022/06/27 04:10:40;;;;;;;2.50;2.40;;;17.70;99.90;;;18.35;100.00;97670.03;5198406;28;20740;-63
2022/06/27 04:13:14;;;;;;;3.35;3.08;;;17.70;99.90;;;18.34;100.00;97663.13;5197505;28;20272;-63
2022/06/27 04:15:48;;;;;;;3.15;2.90;;;17.70;99.90;;;18.35;100.00;97659.69;5194846;28;20197;-63
2022/06/27 04:18:21;;;;;;;3.25;2.95;;;17.70;99.90;;;18.38;100.00;97652.00;5197041;28;20609;-63
2022/06/27 04:20:54;;;;;;;3.03;2.78;;;17.70;99.90;;;18.39;100.00;97658.03;5197374;28;20194;-63
2022/06/27 04:23:27;;;;;;;3.03;2.75;;;17.70;99.90;;;18.39;100.00;97671.84;5191638;28;20194;-64
2022/06/27 04:26:00;;;;;;;3.40;2.85;;;17.70;99.90;;;18.39;100.00;97677.00;5196160;28;20254;-63
2022/06/27 04:28:35;;;;;;;3.08;2.85;;;17.70;99.90;;;18.42;100.00;97668.44;5196343;28;20222;-64
2022/06/27 04:31:10;;;;;;;2.60;2.50;;;17.70;99.90;;;18.47;100.00;97659.09;5196856;28;20197;-63
2022/06/27 04:33:44;;;;;;;2.65;2.45;;;17.70;99.90;;;18.44;100.00;97649.53;5194059;28;20201;-63
2022/06/27 04:36:17;;;;;;;2.40;2.20;;;17.70;99.90;;;18.45;100.00;97661.63;5194455;28;20194;-63
2022/06/27 04:38:51;;;;;;;2.65;2.45;;;17.70;99.90;;;18.44;100.00;97665.06;5197531;28;20719;-63
2022/06/27 04:41:25;;;;;;;3.30;2.70;;;17.70;99.90;;;18.45;100.00;97651.28;5196198;28;20725;-63
2022/06/27 04:43:59;;;;;;;3.30;3.00;;;17.70;99.90;;;18.58;100.00;97642.09;5194495;28;20240;-60
2022/06/27 04:46:33;;;;;;;2.92;2.72;;;17.80;99.90;;;18.83;100.00;97642.66;5192368;28;20213;-62
2022/06/27 04:49:06;;;;;;;3.00;2.80;;;18.20;99.90;;;19.25;100.00;97645.22;5196273;28;20225;-62
2022/06/27 04:51:40;;;;;;;2.90;2.60;;;18.60;99.90;;;19.65;100.00;97658.06;5191346;28;20298;-61
2022/06/27 04:54:16;;;;;;;4.28;2.20;;;18.90;99.90;;;19.62;100.00;97658.00;5194418;28;20651;-60
2022/06/27 04:56:50;;;;;;;2.80;2.60;;;18.70;99.90;;;19.63;100.00;97654.53;5192404;28;20197;-61
2022/06/27 04:59:25;;;;;;;2.20;2.05;;;18.80;99.90;;;19.72;100.00;97650.44;5198571;28;20221;-62
2022/06/27 05:01:59;;;;;;;2.67;2.42;;;18.90;99.90;;;19.60;100.00;97655.38;5190433;28;20209;-61
2022/06/27 05:04:32;;;;;;;2.80;2.20;;;18.70;99.90;;;19.52;100.00;97651.78;5189872;28;20222;-61
2022/06/27 05:07:05;;;;;;;2.63;2.42;;;18.60;99.90;;;19.36;100.00;97651.47;5200980;28;20263;-61
2022/06/27 05:09:38;;;;;;;2.47;2.03;;;18.60;99.90;;;19.43;100.00;97668.03;5196769;28;20241;-60
2022/06/27 05:12:11;;;;;;;2.50;2.10;;;18.70;99.90;;;19.64;100.00;97654.59;5195673;28;20202;-60
2022/06/27 05:14:46;;;;;;;2.10;1.90;;;18.90;99.90;;;20.19;100.00;97649.47;5194972;28;20226;-62
2022/06/27 05:17:19;;;;;;;2.55;1.92;;;19.50;99.90;;;20.74;100.00;97639.91;5188487;28;20209;-59
2022/06/27 05:19:52;;;;;;;2.25;1.80;;;20.10;99.90;;;21.22;100.00;97645.72;5196778;28;20766;-57
2022/06/27 05:22:25;;;;;;;1.80;1.70;;;20.50;99.90;;;21.69;97.76;97655.78;5196327;28;20198;-59
2022/06/27 05:24:59;;;;;;;1.80;1.40;;;20.90;99.90;;;22.03;90.91;97654.34;5204284;28;20272;-62
2022/06/27 05:27:34;;;;;;;2.00;1.73;;;21.20;99.90;;;22.31;89.92;97671.09;5199023;28;20210;-60
2022/06/27 05:30:11;;;;;;;1.95;1.50;;;21.40;99.90;;;22.17;85.76;97647.56;5199053;28;20221;-61
2022/06/27 05:32:44;;;;;;;1.92;1.73;;;21.20;99.90;;;22.45;89.63;97653.84;5197118;28;20210;-61
2022/06/27 05:35:18;;;;;;;2.05;1.75;;;21.30;99.90;;;22.23;83.16;97662.34;5205378;28;20197;-61
2022/06/27 05:37:51;;;;;;;2.00;1.90;;;21.40;99.90;;;22.56;85.96;97666.09;5199059;28;20232;-60
2022/06/27 05:40:24;;;;;;;2.05;1.80;;;21.40;99.90;;;22.84;84.43;97661.91;5204827;28;20618;-61
2022/06/27 05:42:58;;;;;;;2.85;1.80;;;21.60;99.90;;;23.02;83.45;97653.34;5197929;28;20653;-61
2022/06/27 05:45:32;;;;;;;3.47;2.00;;;21.80;99.90;;;23.35;81.24;97674.34;5200347;28;20214;-62
2022/06/27 05:48:07;;;;;;;2.05;1.60;;;22.10;99.90;;;23.69;82.65;97677.00;5200829;28;20304;-63
2022/06/27 05:50:40;;;;;;;3.25;1.60;;;22.30;99.90;;;23.89;78.57;97677.06;5202911;28;20197;-61
2022/06/27 05:53:14;;;;;;;1.70;1.60;;;22.50;99.90;;;24.12;77.06;97692.75;5198724;28;20290;-62
2022/06/27 05:55:47;;;;;;;2.15;1.60;;;22.70;99.90;;;24.31;75.90;97703.25;5197206;28;20616;-61
2022/06/27 05:58:20;;;;;;;3.00;1.70;;;22.90;99.90;;;24.29;77.08;97705.84;5190057;28;20253;-60
2022/06/27 06:00:55;;;;;;;1.52;1.42;;;22.90;99.90;;;24.21;76.11;97711.09;5191576;28;20302;-62
2022/06/27 06:03:29;;;;;;;1.85;1.70;;;22.60;99.90;;;24.18;78.68;97716.31;5197696;28;20229;-61
2022/06/27 06:06:04;;;;;;;1.45;1.38;;;22.40;99.90;;;24.15;76.22;97729.38;5192732;28;20217;-62
2022/06/27 06:08:37;;;;;;;2.17;1.42;;;22.40;99.90;;;24.11;78.17;97731.97;5196174;28;20663;-63
2022/06/27 06:11:10;;;;;;;1.50;1.40;;;22.20;99.90;;;24.12;77.95;97739.78;5193745;28;20194;-62
2022/06/27 06:13:44;;;;;;;3.75;1.60;;;22.30;99.90;;;24.15;77.17;97741.53;5191539;28;20237;-62
2022/06/27 06:16:20;;;;;;;1.27;1.17;;;22.40;99.90;;;24.03;76.74;97751.09;5193725;28;20194;-58
2022/06/27 06:18:55;;;;;;;3.05;1.45;;;22.30;99.90;;;24.00;81.97;97763.28;5198842;28;20312;-61
2022/06/27 06:21:29;;;;;;;1.73;1.48;;;22.10;99.90;;;23.51;78.24;97765.69;5199373;28;20263;-62
2022/06/27 06:24:02;;;;;;;2.35;1.50;;;21.80;99.90;;;23.19;80.51;97778.59;5197382;28;20668;-62
2022/06/27 06:26:35;;;;;;;1.73;1.58;;;21.60;99.90;;;23.12;81.13;97777.66;5202366;28;20222;-62
2022/06/27 06:29:14;;;;;;;1.67;1.40;;;21.50;99.90;;;23.13;85.71;97785.50;5199847;28;20711;-62
2022/06/27 06:31:49;;;;;;;1.55;1.45;;;21.50;99.90;;;22.90;84.87;97790.53;5194857;28;20248;-62
2022/06/27 06:34:30;;;;;;;1.70;1.40;;;21.40;99.90;;;22.80;85.49;97799.13;5193429;28;20225;-61
2022/06/27 06:37:05;;;;;;;1.55;1.38;;;21.30;99.90;;;22.66;83.70;97805.97;5188612;28;20714;-63
2022/06/27 06:39:45;;;;;;;1.58;1.48;;;21.20;99.90;;;22.59;85.63;97807.66;5201629;28;20245;-61
2022/06/27 06:42:18;;;;;;;1.60;1.48;;;21.10;99.90;;;22.44;84.14;97811.00;5204407;28;20229;-62
2022/06/27 06:44:55;;;;;;;2.53;1.45;;;21.00;99.90;;;22.62;86.72;97801.59;5195907;28;20202;-62
2022/06/27 06:47:30;;;;;;;1.48;1.38;;;21.30;99.90;;;23.15;80.93;97789.00;5196263;28;20202;-61
2022/06/27 06:50:03;;;;;;;1.52;1.42;;;21.80;99.90;;;23.34;81.40;97783.88;5204236;28;20213;-62
2022/06/27 06:52:38;;;;;;;1.42;1.38;;;21.90;99.90;;;23.40;79.09;97783.91;5204812;28;20205;-62
2022/06/27 06:55:12;;;;;;;1.83;1.30;;;21.90;99.90;;;23.37;80.74;97805.63;5205236;28;20248;-62
2022/06/27 06:57:45;;;;;;;2.65;1.60;;;21.80;99.90;;;23.18;79.85;97798.59;5202307;28;20200;-62
2022/06/27 07:00:20;;;;;;;1.92;1.58;;;21.70;99.90;;;22.84;81.83;97797.44;5198187;28;20249;-61
2022/06/27 07:02:58;;;;;;;1.80;1.70;;;21.50;99.90;;;22.58;82.41;97807.66;5204068;28;20200;-62
2022/06/27 07:05:32;;;;;;;3.55;1.67;;;21.30;99.90;;;22.62;85.17;97806.81;5205047;28;20588;-62
2022/06/27 07:08:07;;;;;;;2.05;1.60;;;21.20;99.90;;;22.64;86.73;97811.19;5201813;28;20762;-60
2022/06/27 07:10:40;;;;;;;1.77;1.50;;;21.20;99.90;;;22.54;86.32;97813.69;5202243;28;20251;-62
2022/06/27 07:13:15;;;;;;;1.60;1.50;;;21.20;99.90;;;22.56;83.00;97817.19;5203546;28;20206;-61
2022/06/27 07:15:48;;;;;;;2.15;1.58;;;21.20;99.90;;;22.56;84.77;97822.41;5203058;28;20229;-62
2022/06/27 07:18:24;;;;;;;2.30;1.80;;;21.20;99.90;;;22.66;85.36;97829.44;5203793;28;20632;-62
2022/06/27 07:20:57;;;;;;;2.45;1.70;;;21.20;99.90;;;22.48;83.55;97836.22;5201644;28;20225;-62
2022/06/27 07:23:37;;;;;;;1.63;1.50;;;21.20;99.90;;;22.80;85.99;97825.19;5198710;28;20292;-62
2022/06/27 07:26:10;;;;;;;1.98;1.70;;;21.50;99.90;;;22.78;81.14;97824.34;5201132;28;20233;-62
2022/06/27 07:28:48;;;;;;;3.13;1.70;;;21.60;99.90;;;22.88;82.58;97826.13;5198104;28;20221;-61
2022/06/27 07:31:22;;;;;;;2.17;1.58;;;21.70;99.90;;;22.84;79.69;97821.78;5203619;28;20208;-61
2022/06/27 07:33:56;;;;;;;2.63;1.88;;;21.70;99.90;;;22.90;79.03;97824.44;5200612;28;20198;-61
2022/06/27 07:36:32;;;;;;;2.03;1.50;;;21.60;99.90;;;22.79;80.65;97826.06;5191775;28;20224;-61
2022/06/27 07:39:06;;;;;;;2.63;1.70;;;21.60;99.90;;;22.94;79.27;97828.78;5199328;28;20222;-62
2022/06/27 07:41:39;;;;;;;1.60;1.50;;;21.70;99.90;;;23.35;79.39;97820.41;5201025;28;20198;-62
2022/06/27 07:44:12;;;;;;;1.65;1.40;;;22.10;99.90;;;23.51;77.10;97817.88;5199540;28;20652;-61
2022/06/27 07:46:45;;;;;;;2.65;1.30;;;22.30;99.90;;;23.66;76.45;97812.72;5199277;28;20252;-62
2022/06/27 07:49:20;;;;;;;1.40;1.30;;;22.50;99.90;;;24.16;80.41;97825.13;5199172;28;20238;-61
2022/06/27 07:51:53;;;;;;;1.55;1.45;;;22.80;99.90;;;24.11;72.72;97820.75;5199600;28;20201;-61
2022/06/27 07:54:27;;;;;;;1.98;1.40;;;22.80;99.90;;;24.09;76.93;97828.56;5199901;28;20726;-62
2022/06/27 07:57:02;;;;;;;2.35;1.70;;;22.60;99.90;;;24.04;74.66;97846.88;5193620;28;20198;-62
2022/06/27 07:59:36;;;;;;;1.58;1.20;;;22.60;99.90;;;24.10;75.48;97848.63;5197254;28;20221;-61
2022/06/27 08:02:10;;;;;;;1.55;1.30;;;22.60;99.90;;;24.10;74.83;97851.22;5201312;28;20190;-61
2022/06/27 08:04:44;;;;;;;1.77;1.50;;;22.70;99.90;;;24.27;72.74;97843.44;5198963;28;20687;-61
2022/06/27 08:07:17;;;;;;;2.03;1.30;;;22.90;99.90;;;24.37;72.79;97844.31;5194902;28;20218;-61
2022/06/27 08:09:51;;;;;;;2.17;1.30;;;23.00;99.90;;;24.51;72.16;97845.25;5193473;28;20361;-61
2022/06/27 08:12:24;;;;;;;1.98;1.38;;;23.10;99.90;;;24.53;73.78;97851.38;5198620;28;20205;-61
2022/06/27 08:14:58;;;;;;;2.05;1.30;;;23.10;99.90;;;24.67;69.80;97857.47;5196075;28;20622;-61
2022/06/27 08:17:31;;;;;;;1.85;1.10;;;23.20;99.90;;;24.45;70.12;97867.03;5197871;28;20616;-61
2022/06/27 08:20:07;;;;;;;1.48;1.35;;;23.10;99.90;;;24.53;70.65;97877.50;5192949;28;20218;-61
2022/06/27 08:22:43;;;;;;;1.30;1.20;;;23.10;99.90;;;24.32;70.52;97872.19;5195645;28;20201;-61
2022/06/27 08:25:17;;;;;;;1.40;1.30;;;22.80;99.90;;;24.14;72.44;97870.41;5191432;28;20255;-62
2022/06/27 08:27:50;;;;;;;1.58;1.10;;;22.70;99.90;;;24.30;73.40;97863.50;5193766;28;20222;-61
2022/06/27 08:30:25;;;;;;;1.67;1.42;;;22.90;99.90;;;24.51;75.13;97879.22;5198769;28;20203;-61
2022/06/27 08:32:59;;;;;;;1.30;1.30;;;23.10;99.90;;;24.51;70.75;97876.63;5194187;28;20649;-61
2022/06/27 08:35:35;;;;;;;1.20;1.10;;;23.20;99.90;;;24.83;69.57;97875.78;5194186;28;20639;-61
2022/06/27 08:38:08;;;;;;;1.50;1.30;;;23.50;99.90;;;25.11;67.78;97876.66;5189741;28;20309;-60
2022/06/27 08:40:41;;;;;;;1.33;1.23;;;23.90;99.90;;;25.21;68.11;97880.16;5193268;28;20202;-61
2022/06/27 08:43:15;;;;;;;1.77;1.40;;;24.00;99.90;;;24.97;68.47;97892.34;5194980;28;20235;-61
2022/06/27 08:45:50;;;;;;;1.77;1.48;;;23.70;99.90;;;24.90;70.10;97888.88;5201546;28;20573;-61
2022/06/27 08:48:23;;;;;;;1.65;1.40;;;23.50;99.90;;;24.69;68.77;97889.72;5194960;28;20214;-61
2022/06/27 08:50:59;;;;;;;1.55;1.30;;;23.20;99.90;;;24.61;71.31;97885.34;5194139;28;20198;-61
2022/06/27 08:53:33;;;;;;;1.30;1.15;;;23.20;99.90;;;24.44;70.43;97887.94;5193610;28;20189;-60
2022/06/27 08:56:09;;;;;;;2.20;1.30;;;23.10;99.90;;;24.48;71.79;97894.91;5194480;28;20233;-61
2022/06/27 08:58:46;;;;;;;1.10;1.08;;;23.10;99.90;;;24.22;71.22;97903.50;5195626;28;20221;-61
2022/06/27 09:01:22;;;;;;;1.30;1.30;;;23.10;99.90;;;24.33;71.07;97894.84;5194709;28;20197;-61
2022/06/27 09:04:02;;;;;;;1.40;1.30;;;23.10;99.90;;;24.50;70.68;97899.28;5192422;28;20205;-61
2022/06/27 09:06:57;;;;;;;1.33;1.23;;;23.20;99.90;;;24.50;69.61;97895.78;5196279;28;20206;-61
2022/06/27 09:09:30;;;;;;;1.40;1.30;;;23.40;99.90;;;24.57;69.01;97900.16;5197079;28;20236;-61
2022/06/27 09:12:06;;;;;;;1.75;1.40;;;23.50;99.90;;;24.62;67.83;97898.44;5193845;28;20195;-61
2022/06/27 09:14:41;;;;;;;1.52;1.45;;;23.30;99.90;;;24.39;68.67;97902.69;5196175;28;20280;-60
2022/06/27 09:17:16;;;;;;;1.70;1.40;;;23.10;99.90;;;23.99;69.54;97911.25;5192144;28;20715;-61
2022/06/27 09:19:53;;;;;;;1.50;1.40;;;22.80;99.90;;;24.03;71.88;97907.78;5199816;28;20221;-61
2022/06/27 09:22:29;;;;;;;1.92;1.60;;;22.70;99.90;;;23.77;70.51;97894.59;5199094;28;20204;-60
2022/06/27 09:25:12;;;;;;;1.67;1.58;;;22.70;99.90;;;23.85;70.18;97893.78;5193294;28;20285;-60
2022/06/27 09:27:50;;;;;;;1.60;1.50;;;22.60;99.90;;;23.77;70.83;97904.19;5202348;28;20711;-61
2022/06/27 09:30:29;;;;;;;1.85;1.70;;;22.70;99.90;;;23.96;70.67;97913.00;5192207;28;20194;-61
2022/06/27 09:33:04;;;;;;;1.67;1.58;;;22.70;99.90;;;24.01;70.63;97913.88;5203276;28;20285;-61
2022/06/27 09:35:39;;;;;;;1.80;1.70;;;22.90;99.90;;;24.15;70.44;97908.69;5193311;28;20198;-61
2022/06/27 09:38:16;;;;;;;2.17;1.75;;;23.10;99.90;;;24.03;70.32;97901.69;5191724;28;20687;-61
2022/06/27 09:40:50;;;;;;;2.15;1.90;;;23.10;99.90;;;24.19;69.84;97903.50;5203266;28;20232;-61
2022/06/27 09:43:25;;;;;;;1.88;1.67;;;23.10;99.90;;;24.29;69.08;97909.63;5190092;28;20194;-61
2022/06/27 09:45:58;;;;;;;1.90;1.80;;;23.00;99.90;;;24.34;69.20;97907.03;5191423;28;20209;-61
2022/06/27 09:48:32;;;;;;;1.80;1.70;;;23.00;99.90;;;24.37;69.17;97897.47;5190023;28;20222;-60
2022/06/27 09:51:05;;;;;;;1.80;1.70;;;23.20;99.90;;;24.40;68.54;97901.81;5192851;28;20319;-60
2022/06/27 09:53:48;;;;;;;1.98;1.88;;;23.30;99.90;;;24.35;68.50;97908.75;5196398;28;20204;-60
2022/06/27 09:56:22;;;;;;;1.90;1.80;;;23.20;99.90;;;24.34;67.37;97902.69;5194113;28;20194;-60
2022/06/27 09:58:55;;;;;;;2.10;1.98;;;23.10;99.90;;;23.95;69.37;97913.84;5203434;28;20955;-60
2022/06/27 10:01:44;;;;;;;2.47;2.38;;;22.80;99.90;;;23.77;69.01;97909.41;5204589;28;20320;-60
2022/06/27 10:04:19;;;;;;;2.08;1.98;;;22.60;99.90;;;23.93;70.15;97915.59;5199290;28;20201;-60
2022/06/27 10:06:53;;;;;;;2.38;2.28;;;22.70;99.90;;;24.22;69.11;97915.72;5195559;28;20243;-58
2022/06/27 10:09:29;;;;;;;2.35;2.15;;;23.00;99.90;;;24.34;67.78;97907.91;5196552;28;20225;-60
2022/06/27 10:12:26;;;;;;;2.10;2.00;;;23.40;99.90;;;24.64;69.17;97908.91;5196052;28;20202;-60
2022/06/27 10:15:25;;;;;;;2.42;2.05;;;23.60;99.90;;;24.80;67.23;97915.00;5204316;28;20237;-60
2022/06/27 10:18:02;;;;;;;3.22;2.13;;;23.80;99.90;;;24.58;65.53;97922.81;5188702;28;20240;-59
2022/06/27 10:20:38;;;;;;;2.20;2.00;;;23.50;99.90;;;24.18;67.55;97922.66;5197812;28;20194;-60
2022/06/27 10:23:29;;;;;;;2.30;2.10;;;23.10;99.90;;;24.14;67.81;97930.47;5195209;28;20198;-60
2022/06/27 10:26:03;;;;;;;2.95;2.20;;;23.00;99.90;;;23.97;68.39;97933.00;5200268;28;20193;-60
2022/06/27 10:28:36;;;;;;;2.08;1.98;;;22.80;99.90;;;23.91;69.72;97943.41;5191907;28;20332;-60
2022/06/27 10:31:17;;;;;;;2.28;2.17;;;22.80;99.90;;;24.17;69.88;97944.41;5198305;28;20205;-59
2022/06/27 10:33:51;;;;;;;2.45;2.28;;;23.10;99.90;;;24.55;69.54;97946.31;5200876;28;20557;-60
2022/06/27 10:36:24;;;;;;;2.00;1.90;;;23.60;99.90;;;24.91;68.06;97948.16;5200385;28;20367;-59
2022/06/27 10:39:01;;;;;;;2.40;2.20;;;24.00;99.90;;;24.99;65.90;97949.91;5205252;28;20225;-60
2022/06/27 10:41:42;;;;;;;2.00;1.85;;;24.00;99.90;;;24.84;64.62;97943.78;5204594;28;20584;-60
2022/06/27 10:44:32;;;;;;;2.20;2.10;;;23.90;99.90;;;24.84;65.64;97962.09;5205370;28;20192;-60
2022/06/27 10:47:06;;;;;;;2.10;2.00;;;23.90;99.90;;;25.05;65.04;97974.31;5198276;28;20287;-58
2022/06/27 10:49:39;;;;;;;2.40;2.20;;;24.00;99.90;;;24.87;65.44;97974.31;5199036;28;20222;-60